createdAt,value
2018-11-29T08:06:50.575Z,0.09
2018-11-29T08:08:50.491Z,0.08
2018-11-29T08:10:50.518Z,0.06
2018-11-29T08:12:50.525Z,0.06
2018-11-29T08:14:49.721Z,0.06
2018-11-29T08:16:49.904Z,0.07
2018-11-29T08:18:49.991Z,0.06
2018-11-29T08:20:50.046Z,0.05
2018-11-29T08:22:50.044Z,0.15
2018-11-29T08:24:50.048Z,0.19
2018-11-29T08:26:50.227Z,0.16
2018-11-29T08:28:50.239Z,0.14
2018-11-29T08:30:50.302Z,0.22
2018-11-29T08:32:50.297Z,0.29
2018-11-29T08:34:49.705Z,0.45
2018-11-29T08:36:49.920Z,0.46
2018-11-29T08:38:49.885Z,0.58
2018-11-29T08:40:50.180Z,0.57
2018-11-29T08:42:50.177Z,0.66
2018-11-29T08:44:50.061Z,0.75
2018-11-29T08:46:50.291Z,0.76
2018-11-29T08:48:50.325Z,0.68
2018-11-29T08:50:50.298Z,0.70
2018-11-29T08:52:50.361Z,0.75
2018-11-29T08:54:50.395Z,0.81
2018-11-29T08:56:50.540Z,0.77
2018-11-29T08:58:50.529Z,0.74
2018-11-29T09:00:49.719Z,0.91
2018-11-29T09:02:49.832Z,0.99
2018-11-29T09:04:50.209Z,0.99
2018-11-29T09:06:50.326Z,0.99
2018-11-29T09:08:50.319Z,1.07
2018-11-29T09:10:50.275Z,1.12
2018-11-29T09:12:50.382Z,1.26
2018-11-29T09:14:50.312Z,1.30
2018-11-29T09:16:50.475Z,1.36
2018-11-29T09:18:50.485Z,1.52
2018-11-29T09:20:50.589Z,1.60
2018-11-29T09:22:50.624Z,1.67
2018-11-29T09:24:50.657Z,1.78
2018-11-29T09:26:49.972Z,1.76
2018-11-29T09:28:49.929Z,1.80
2018-11-29T09:30:49.913Z,2.01
2018-11-29T09:32:49.930Z,2.09
2018-11-29T09:34:50.230Z,2.05
2018-11-29T09:36:50.646Z,2.07
2018-11-29T09:38:50.575Z,2.13
2018-11-29T09:40:49.746Z,2.09
2018-11-29T09:42:49.689Z,2.04
2018-11-29T09:44:49.758Z,2.13
2018-11-29T09:46:50.226Z,2.24
2018-11-29T09:48:50.147Z,2.29
2018-11-29T09:50:50.071Z,2.36
2018-11-29T09:52:50.127Z,2.49
2018-11-29T09:54:50.196Z,2.52
2018-11-29T09:56:50.458Z,2.62
2018-11-29T09:58:50.448Z,2.73
2018-11-29T10:00:50.378Z,2.93
2018-11-29T10:02:50.379Z,2.99
2018-11-29T10:04:49.743Z,2.86
2018-11-29T10:06:50.043Z,2.88
2018-11-29T10:08:50.062Z,3.05
2018-11-29T10:10:50.027Z,3.10
2018-11-29T10:12:50.042Z,3.19
2018-11-29T10:14:50.013Z,3.35
2018-11-29T10:16:50.131Z,3.46
2018-11-29T10:18:50.154Z,3.45
2018-11-29T10:20:50.170Z,3.77
2018-11-29T10:22:50.198Z,3.8
2018-11-29T10:24:50.195Z,3.9
2018-11-29T10:26:50.445Z,3.9
2018-11-29T10:28:50.467Z,4.0
2018-11-29T10:30:50.494Z,4.0
2018-11-29T10:32:50.628Z,4.0
2018-11-29T10:34:50.022Z,4.1
2018-11-29T10:36:50.242Z,4.1
2018-11-29T10:38:50.232Z,4.2
2018-11-29T10:40:50.241Z,4.3
2018-11-29T10:42:50.425Z,4.4
2018-11-29T10:44:50.469Z,4.4
2018-11-29T10:46:49.747Z,4.4
2018-11-29T10:48:49.805Z,4.5
2018-11-29T10:50:49.834Z,4.6
2018-11-29T10:52:49.788Z,4.6
2018-11-29T10:54:49.820Z,4.7
2018-11-29T10:56:50.166Z,4.8
2018-11-29T10:58:50.131Z,4.8
2018-11-29T11:00:50.164Z,4.9
2018-11-29T11:02:50.249Z,4.9
2018-11-29T11:04:50.743Z,5.0
2018-11-29T11:06:50.109Z,5.1
2018-11-29T11:08:50.341Z,5.2
2018-11-29T11:10:50.649Z,5.3
2018-11-29T11:12:49.881Z,5.3
2018-11-29T11:14:50.120Z,5.5
2018-11-29T11:16:50.484Z,5.6
2018-11-29T11:18:50.639Z,5.6
2018-11-29T11:20:50.679Z,5.7
2018-11-29T11:22:49.987Z,5.7
2018-11-29T11:24:50.120Z,5.7
2018-11-29T11:26:50.536Z,5.8
2018-11-29T11:28:50.740Z,5.8
2018-11-29T11:30:49.968Z,5.9
2018-11-29T11:32:50.139Z,5.9
2018-11-29T11:34:50.568Z,5.9
2018-11-29T11:36:49.946Z,6.0
2018-11-29T11:38:50.433Z,6.0
2018-11-29T11:40:50.679Z,6.1
2018-11-29T11:42:50.077Z,6.2
2018-11-29T11:44:50.304Z,6.2
2018-11-29T11:46:50.687Z,6.2
2018-11-29T11:48:50.756Z,6.3
2018-11-29T11:50:49.941Z,6.4
2018-11-29T11:52:50.202Z,6.5
2018-11-29T11:54:50.449Z,6.5
2018-11-29T11:56:50.818Z,6.6
2018-11-29T11:58:50.121Z,6.7
2018-11-29T12:00:50.298Z,6.7
2018-11-29T12:02:50.763Z,6.7
2018-11-29T12:04:50.340Z,6.7
2018-11-29T12:06:50.657Z,6.8
2018-11-29T12:08:49.848Z,6.9
2018-11-29T12:10:50.031Z,6.9
2018-11-29T12:12:50.112Z,6.9
2018-11-29T12:14:50.233Z,7.0
2018-11-29T12:16:50.778Z,7.0
2018-11-29T12:18:50.004Z,7.0
2018-11-29T12:20:50.146Z,7.0
2018-11-29T12:22:50.223Z,7.1
2018-11-29T12:24:50.472Z,7.1
2018-11-29T12:26:50.852Z,7.1
2018-11-29T12:28:50.023Z,7.05
2018-11-29T12:30:50.169Z,7.01
2018-11-29T12:32:50.349Z,6.99
2018-11-29T12:34:50.001Z,6.96
2018-11-29T12:36:50.464Z,6.83
2018-11-29T12:38:50.731Z,6.83
2018-11-29T12:40:49.950Z,6.52
2018-11-29T12:42:50.111Z,6.49
2018-11-29T12:44:50.228Z,6.34
2018-11-29T12:46:50.497Z,6.32
2018-11-29T12:48:50.596Z,6.17
2018-11-29T12:50:50.734Z,6.12
2018-11-29T12:52:50.051Z,6.15
2018-11-29T12:54:50.203Z,6.17
2018-11-29T12:56:50.505Z,6.24
2018-11-29T12:58:50.610Z,6.39
2018-11-29T13:00:49.879Z,6.40
2018-11-29T13:02:50.360Z,6.32
2018-11-29T13:04:49.908Z,6.32
2018-11-29T13:06:50.208Z,6.25
2018-11-29T13:08:50.317Z,6.25
2018-11-29T13:10:50.477Z,6.25
2018-11-29T13:12:50.604Z,6.35
2018-11-29T13:14:50.807Z,6.43
2018-11-29T13:16:50.296Z,6.51
2018-11-29T13:18:50.573Z,6.60
2018-11-29T13:20:49.862Z,6.58
2018-11-29T13:22:50.120Z,6.58
2018-11-29T13:24:50.248Z,6.51
2018-11-29T13:26:50.571Z,6.61
2018-11-29T13:28:50.691Z,6.78
2018-11-29T13:30:50.503Z,6.88
2018-11-29T13:32:50.867Z,6.91
2018-11-29T13:34:50.595Z,6.82
2018-11-29T13:36:50.003Z,6.76
2018-11-29T13:38:50.132Z,6.67
2018-11-29T13:40:51.582Z,6.59
2018-11-29T13:42:50.900Z,6.51
2018-11-29T13:44:50.617Z,6.37
2018-11-29T13:46:50.242Z,6.33
2018-11-29T13:48:50.359Z,6.30
2018-11-29T13:50:50.534Z,6.19
2018-11-29T13:52:50.744Z,6.16
2018-11-29T13:54:49.962Z,6.05
2018-11-29T13:56:50.379Z,5.98
2018-11-29T13:58:50.554Z,5.95
2018-11-29T14:00:50.690Z,5.91
2018-11-29T14:02:49.987Z,5.84
2018-11-29T14:04:50.145Z,5.76
2018-11-29T14:06:50.752Z,5.64
2018-11-29T14:08:49.941Z,5.58
2018-11-29T14:10:50.399Z,5.48
2018-11-29T14:12:52.170Z,5.45
2018-11-29T14:14:50.448Z,5.33
2018-11-29T14:16:49.877Z,5.22
2018-11-29T14:18:50.119Z,5.16
2018-11-29T14:20:50.273Z,5.09
2018-11-29T14:22:50.401Z,5.05
2018-11-29T14:24:50.953Z,4.97
2018-11-29T14:26:50.415Z,4.95
2018-11-29T14:28:50.726Z,4.86
2018-11-29T14:30:49.911Z,4.81
2018-11-29T14:32:50.024Z,4.78
2018-11-29T14:34:52.474Z,4.67
2018-11-29T14:36:50.844Z,4.65
2018-11-29T14:38:50.054Z,4.56
2018-11-29T14:40:50.292Z,4.48
2018-11-29T14:42:50.511Z,4.44
2018-11-29T14:44:50.703Z,4.40
2018-11-29T14:46:50.129Z,4.37
2018-11-29T14:48:50.312Z,4.28
2018-11-29T14:50:50.393Z,4.25
2018-11-29T14:52:50.503Z,4.19
2018-11-29T14:54:50.644Z,4.16
2018-11-29T14:56:50.288Z,4.06
2018-11-29T14:58:50.518Z,4.02
2018-11-29T15:00:50.646Z,3.89
2018-11-29T15:02:50.691Z,3.82
2018-11-29T15:04:50.316Z,3.77
2018-11-29T15:06:50.660Z,3.68
2018-11-29T15:08:50.193Z,3.65
2018-11-29T15:10:50.324Z,3.57
2018-11-29T15:12:50.504Z,3.53
2018-11-29T15:14:50.592Z,3.49
2018-11-29T15:16:49.974Z,3.45
2018-11-29T15:18:50.120Z,3.40
2018-11-29T15:20:50.348Z,3.37
2018-11-29T15:22:50.438Z,3.35
2018-11-29T15:24:50.646Z,3.27
2018-11-29T15:26:50.022Z,3.24
2018-11-29T15:28:50.115Z,3.24
2018-11-29T15:30:50.241Z,3.18
2018-11-29T15:32:50.467Z,3.14
2018-11-29T15:34:49.876Z,3.07
2018-11-29T15:36:50.424Z,2.96
2018-11-29T15:38:50.525Z,2.87
2018-11-29T15:40:50.813Z,2.84
2018-11-29T15:42:49.931Z,2.74
2018-11-29T15:44:50.061Z,2.74
2018-11-29T15:46:50.399Z,2.73
2018-11-29T15:48:50.477Z,2.69
2018-11-29T15:50:50.580Z,2.67
2018-11-29T15:52:50.831Z,2.64
2018-11-29T15:54:50.056Z,2.68
2018-11-29T15:56:50.393Z,2.75
2018-11-29T15:58:50.559Z,2.75
2018-11-29T16:00:50.648Z,2.79
2018-11-29T16:02:49.909Z,2.84
2018-11-29T16:04:50.368Z,2.81
2018-11-29T16:06:50.664Z,2.70
2018-11-29T16:08:49.864Z,2.66
2018-11-29T16:10:50.087Z,2.66
2018-11-29T16:12:50.157Z,2.70
2018-11-29T16:14:50.344Z,2.70
2018-11-29T16:16:50.786Z,2.69
2018-11-29T16:18:49.922Z,2.69
2018-11-29T16:20:50.222Z,2.69
2018-11-29T16:22:50.444Z,2.66
2018-11-29T16:24:50.759Z,2.66
2018-11-29T16:26:50.137Z,2.64
2018-11-29T16:28:50.263Z,2.64
2018-11-29T16:30:50.371Z,2.57
2018-11-29T16:32:50.561Z,2.53
2018-11-29T16:34:50.109Z,2.52
2018-11-29T16:36:50.426Z,2.48
2018-11-29T16:38:50.589Z,2.47
2018-11-29T16:40:50.701Z,2.43
2018-11-29T16:42:49.898Z,2.43
2018-11-29T16:44:50.211Z,2.42
2018-11-29T16:46:50.725Z,2.45
2018-11-29T16:48:50.459Z,2.45
2018-11-29T16:50:50.624Z,2.45
2018-11-29T16:52:50.767Z,2.44
2018-11-29T16:54:49.895Z,2.45
2018-11-29T16:56:50.314Z,2.46
2018-11-29T16:58:50.457Z,2.46
2018-11-29T17:00:50.629Z,2.45
2018-11-29T17:02:50.716Z,2.47
2018-11-29T17:04:50.337Z,2.49
2018-11-29T17:06:50.685Z,2.48
2018-11-29T17:08:49.872Z,2.50
2018-11-29T17:10:50.088Z,2.50
2018-11-29T17:12:50.244Z,2.48
2018-11-29T17:14:50.388Z,2.46
2018-11-29T17:16:50.694Z,2.45
2018-11-29T17:18:49.888Z,2.46
2018-11-29T17:20:50.103Z,2.48
2018-11-29T17:22:50.344Z,2.50
2018-11-29T17:24:50.521Z,2.53
2018-11-29T17:26:49.886Z,2.55
2018-11-29T17:28:50.107Z,2.54
2018-11-29T17:30:50.247Z,2.52
2018-11-29T17:32:50.389Z,2.52
2018-11-29T17:34:50.752Z,2.51
2018-11-29T17:36:50.134Z,2.50
2018-11-29T17:38:50.294Z,2.50
2018-11-29T17:40:50.539Z,2.49
2018-11-29T17:42:50.691Z,2.47
2018-11-29T17:44:50.795Z,2.47
2018-11-29T17:46:50.238Z,2.46
2018-11-29T17:48:50.352Z,2.45
2018-11-29T17:50:50.583Z,2.44
2018-11-29T17:52:50.715Z,2.41
2018-11-29T17:54:49.862Z,2.40
2018-11-29T17:56:50.176Z,2.37
2018-11-29T17:58:50.301Z,2.37
2018-11-29T18:00:50.438Z,2.36
2018-11-29T18:02:50.613Z,2.34
2018-11-29T18:04:50.369Z,2.34
2018-11-29T18:06:50.754Z,2.33
2018-11-29T18:08:49.876Z,2.33
2018-11-29T18:10:50.035Z,2.29
2018-11-29T18:12:50.205Z,2.19
2018-11-29T18:14:50.323Z,2.14
2018-11-29T18:16:50.700Z,2.07
2018-11-29T18:18:49.884Z,2.05
2018-11-29T18:20:50.138Z,2.00
2018-11-29T18:22:50.320Z,1.98
2018-11-29T18:24:50.523Z,1.96
2018-11-29T18:26:49.979Z,1.98
2018-11-29T18:28:50.186Z,1.98
2018-11-29T18:30:50.283Z,1.95
2018-11-29T18:32:50.588Z,1.94
2018-11-29T18:34:50.170Z,1.94
2018-11-29T18:36:50.549Z,1.91
2018-11-29T18:38:50.674Z,1.90
2018-11-29T18:40:49.901Z,1.88
2018-11-29T18:42:50.176Z,1.87
2018-11-29T18:44:50.375Z,1.87
2018-11-29T18:46:50.814Z,1.89
2018-11-29T18:48:49.888Z,1.89
2018-11-29T18:50:50.037Z,1.90
2018-11-29T18:52:50.186Z,1.90
2018-11-29T18:54:50.317Z,1.88
2018-11-29T18:56:50.690Z,1.87
2018-11-29T18:58:50.819Z,1.87
2018-11-29T19:00:50.021Z,1.90
2018-11-29T19:02:50.242Z,1.91
2018-11-29T19:04:50.709Z,1.87
2018-11-29T19:06:50.133Z,1.88
2018-11-29T19:08:50.319Z,1.88
2018-11-29T19:10:50.483Z,1.87
2018-11-29T19:12:50.656Z,1.83
2018-11-29T19:14:49.870Z,1.82
2018-11-29T19:16:50.331Z,1.85
2018-11-29T19:18:50.501Z,1.87
2018-11-29T19:20:50.628Z,1.95
2018-11-29T19:22:50.815Z,2.02
2018-11-29T19:24:50.005Z,2.03
2018-11-29T19:26:50.538Z,2.05
2018-11-29T19:28:50.650Z,2.07
2018-11-29T19:30:49.897Z,2.10
2018-11-29T19:32:50.071Z,2.10
2018-11-29T19:34:50.549Z,2.10
2018-11-29T19:36:49.922Z,2.12
2018-11-29T19:38:50.085Z,2.13
2018-11-29T19:40:50.239Z,2.15
2018-11-29T19:42:50.451Z,2.14
2018-11-29T19:44:51.342Z,2.13
2018-11-29T19:46:49.871Z,2.12
2018-11-29T19:48:50.150Z,2.09
2018-11-29T19:50:50.253Z,2.09
2018-11-29T19:52:50.421Z,2.09
2018-11-29T19:54:50.632Z,2.08
2018-11-29T19:56:49.991Z,2.09
2018-11-29T19:58:50.169Z,2.09
2018-11-29T20:00:50.560Z,2.08
2018-11-29T20:02:50.820Z,2.03
2018-11-29T20:04:50.475Z,2.00
2018-11-29T20:06:50.719Z,1.95
2018-11-29T20:08:49.879Z,1.93
2018-11-29T20:10:50.070Z,1.93
2018-11-29T20:12:50.164Z,1.93
2018-11-29T20:14:50.332Z,1.94
2018-11-29T20:16:50.798Z,1.94
2018-11-29T20:18:49.979Z,1.94
2018-11-29T20:20:50.160Z,1.88
2018-11-29T20:22:50.384Z,1.85
2018-11-29T20:24:50.539Z,1.85
2018-11-29T20:26:49.908Z,1.83
2018-11-29T20:28:50.071Z,1.82
2018-11-29T20:30:50.222Z,1.83
2018-11-29T20:32:50.489Z,1.79
2018-11-29T20:34:50.076Z,1.79
2018-11-29T20:36:50.398Z,1.77
2018-11-29T20:38:50.514Z,1.76
2018-11-29T20:40:50.684Z,1.76
2018-11-29T20:42:49.939Z,1.75
2018-11-29T20:44:50.010Z,1.75
2018-11-29T20:46:50.315Z,1.75
2018-11-29T20:48:50.429Z,1.73
2018-11-29T20:50:50.608Z,1.70
2018-11-29T20:52:50.735Z,1.69
2018-11-29T20:54:50.837Z,1.68
2018-11-29T20:56:50.141Z,1.69
2018-11-29T20:58:50.340Z,1.68
2018-11-29T21:00:50.566Z,1.66
2018-11-29T21:02:50.739Z,1.65
2018-11-29T21:04:50.188Z,1.65
2018-11-29T21:06:50.726Z,1.62
2018-11-29T21:08:49.910Z,1.61
2018-11-29T21:10:50.214Z,1.62
2018-11-29T21:12:50.510Z,1.63
2018-11-29T21:14:50.656Z,1.64
2018-11-29T21:16:50.058Z,1.63
2018-11-29T21:18:50.238Z,1.63
2018-11-29T21:20:50.351Z,1.63
2018-11-29T21:22:50.498Z,1.62
2018-11-29T21:24:50.591Z,1.56
2018-11-29T21:26:49.970Z,1.55
2018-11-29T21:28:50.095Z,1.55
2018-11-29T21:30:50.237Z,1.55
2018-11-29T21:32:50.416Z,1.54
2018-11-29T21:34:50.015Z,1.54
2018-11-29T21:36:50.371Z,1.52
2018-11-29T21:38:50.510Z,1.52
2018-11-29T21:40:50.802Z,1.52
2018-11-29T21:42:49.942Z,1.52
2018-11-29T21:44:50.069Z,1.54
2018-11-29T21:46:50.380Z,1.54
2018-11-29T21:48:50.519Z,1.54
2018-11-29T21:50:50.676Z,1.57
2018-11-29T21:52:49.891Z,1.57
2018-11-29T21:54:50.121Z,1.57
2018-11-29T21:56:50.469Z,1.57
2018-11-29T21:58:50.587Z,1.56
2018-11-29T22:00:50.716Z,1.55
2018-11-29T22:02:49.887Z,1.56
2018-11-29T22:04:50.474Z,1.58
2018-11-29T22:06:49.884Z,1.57
2018-11-29T22:08:50.132Z,1.56
2018-11-29T22:10:50.341Z,1.58
2018-11-29T22:12:50.556Z,1.57
2018-11-29T22:14:50.637Z,1.57
2018-11-29T22:16:50.070Z,1.57
2018-11-29T22:18:50.224Z,1.56
2018-11-29T22:20:50.668Z,1.56
2018-11-29T22:22:49.968Z,1.57
2018-11-29T22:24:50.085Z,1.57
2018-11-29T22:26:50.379Z,1.56
2018-11-29T22:28:50.536Z,1.60
2018-11-29T22:30:50.653Z,1.63
2018-11-29T22:32:49.885Z,1.62
2018-11-29T22:34:50.553Z,1.60
2018-11-29T22:36:49.883Z,1.61
2018-11-29T22:38:50.027Z,1.61
2018-11-29T22:42:50.072Z,1.54
2018-11-29T22:44:50.255Z,1.51
2018-11-29T22:46:50.684Z,1.43
2018-11-29T22:48:49.928Z,1.40
2018-11-29T22:50:50.166Z,1.35
2018-11-29T22:52:50.343Z,1.32
2018-11-29T22:54:50.521Z,1.29
2018-11-29T22:56:49.966Z,1.26
2018-11-29T22:58:50.154Z,1.27
2018-11-29T23:00:50.373Z,1.24
2018-11-29T23:02:49.963Z,1.21
2018-11-29T23:04:50.452Z,1.19
2018-11-29T23:06:50.818Z,1.16
2018-11-29T23:08:49.920Z,1.12
2018-11-29T23:10:50.019Z,1.10
2018-11-29T23:12:50.203Z,1.10
2018-11-29T23:14:50.313Z,1.09
2018-11-29T23:16:50.622Z,1.09
2018-11-29T23:18:50.742Z,1.07
2018-11-29T23:20:49.983Z,1.06
2018-11-29T23:22:50.170Z,1.04
2018-11-29T23:24:50.322Z,1.02
2018-11-29T23:26:50.603Z,1.00
2018-11-29T23:28:50.830Z,0.98
2018-11-29T23:30:49.947Z,0.97
2018-11-29T23:32:50.149Z,0.96
2018-11-29T23:34:50.664Z,0.96
2018-11-29T23:36:50.053Z,0.96
2018-11-29T23:38:50.228Z,0.95
2018-11-29T23:40:50.441Z,0.92
2018-11-29T23:42:50.615Z,0.92
2018-11-29T23:44:50.785Z,0.90
2018-11-29T23:46:50.136Z,0.90
2018-11-29T23:48:50.305Z,0.90
2018-11-29T23:50:50.523Z,0.93
2018-11-29T23:52:50.713Z,0.92
2018-11-29T23:54:49.922Z,0.90
2018-11-29T23:56:50.304Z,0.92
2018-11-29T23:58:50.437Z,0.94
